Time;durP1;ratioP1;P1;durP2;ratioP2;P2;SDS_P1;SDS_P2;PMS_P1;PMS_P2;Temp;Humidity;BMP_temperature;BMP_pressure;BME280_temperature;BME280_humidity;BME280_pressure;Samples;Min_cycle;Max_cycle;Signal;HPM_P1;HPM_P2
2023/03/25 00:02:19;;;;;;;12.50;6.27;;;7.90;1.00;;;;;;4936192;29;20206;-86
2023/03/25 00:04:50;;;;;;;12.90;6.90;;;7.90;32.80;;;;;;4936237;29;20209;-86
2023/03/25 00:07:20;;;;;;;10.50;6.33;;;7.90;99.90;;;;;;4936364;29;20225;-86
2023/03/25 00:09:47;;;;;;;12.47;5.97;;;7.90;99.90;;;;;;4936112;29;20253;-86
2023/03/25 00:12:15;;;;;;;10.70;6.50;;;7.90;99.90;;;;;;4936464;29;20198;-86
2023/03/25 00:14:43;;;;;;;10.40;6.13;;;7.90;99.90;;;;;;4935942;29;20678;-86
2023/03/25 00:17:12;;;;;;;13.23;6.93;;;8.00;99.90;;;;;;4936213;29;20266;-86
2023/03/25 00:19:40;;;;;;;10.80;6.90;;;8.00;99.90;;;;;;4935896;29;20551;-86
2023/03/25 00:22:07;;;;;;;12.43;7.03;;;8.00;99.90;;;;;;4935859;29;20204;-85
2023/03/25 00:24:35;;;;;;;11.97;7.33;;;8.00;99.90;;;;;;4935649;29;20230;-86
2023/03/25 00:27:03;;;;;;;11.43;7.10;;;7.90;99.90;;;;;;4934526;29;20222;-86
2023/03/25 00:29:30;;;;;;;11.13;7.23;;;7.90;99.90;;;;;;4935321;29;20750;-86
2023/03/25 00:31:57;;;;;;;15.53;7.23;;;7.90;99.90;;;;;;4935507;29;20198;-86
2023/03/25 00:34:24;;;;;;;10.20;6.67;;;7.90;99.90;;;;;;4935363;29;20198;-85
2023/03/25 00:36:51;;;;;;;11.23;6.53;;;7.90;99.90;;;;;;4935776;29;20213;-86
2023/03/25 00:39:17;;;;;;;9.50;6.80;;;7.90;99.90;;;;;;4917323;29;20618;-86
2023/03/25 00:41:47;;;;;;;12.30;7.67;;;7.90;99.90;;;;;;4935256;29;20230;-86
2023/03/25 00:44:16;;;;;;;11.23;6.90;;;7.90;99.90;;;;;;4935572;29;20229;-85
2023/03/25 00:46:43;;;;;;;11.20;7.27;;;7.90;1.00;;;;;;4933914;29;20225;-86
2023/03/25 00:49:11;;;;;;;13.87;7.00;;;7.90;1.00;;;;;;4935814;29;20201;-87
2023/03/25 00:51:38;;;;;;;11.77;6.70;;;7.90;1.00;;;;;;4935335;29;20210;-86
2023/03/25 00:54:06;;;;;;;11.23;6.10;;;7.90;1.00;;;;;;4935217;29;20194;-86
2023/03/25 00:56:33;;;;;;;9.70;5.97;;;7.90;1.00;;;;;;4935300;29;20221;-86
2023/03/25 00:59:01;;;;;;;13.33;6.63;;;8.00;1.00;;;;;;4935117;29;20203;-86
2023/03/25 01:01:29;;;;;;;12.40;6.90;;;7.90;1.00;;;;;;4935098;29;20218;-86
2023/03/25 01:03:57;;;;;;;8.53;5.70;;;7.90;99.90;;;;;;4920843;29;20350;-86
2023/03/25 01:06:28;;;;;;;11.70;6.13;;;7.90;99.90;;;;;;4935596;29;20263;-86
2023/03/25 01:08:56;;;;;;;9.53;6.03;;;7.80;99.90;;;;;;4935722;29;20213;-85
2023/03/25 01:11:25;;;;;;;12.03;6.80;;;7.80;99.90;;;;;;4935234;29;20205;-85
2023/03/25 01:13:54;;;;;;;9.77;5.73;;;7.70;1.00;;;;;;4934998;29;20197;-86
2023/03/25 01:16:23;;;;;;;11.27;5.97;;;7.70;1.00;;;;;;4935054;29;20215;-85
2023/03/25 01:18:50;;;;;;;10.23;5.90;;;7.70;1.00;;;;;;4935582;29;20257;-86
2023/03/25 01:21:17;;;;;;;8.93;5.53;;;7.70;99.90;;;;;;4935154;29;20607;-86
2023/03/25 01:23:44;;;;;;;9.97;5.93;;;7.60;99.90;;;;;;4934971;29;20194;-86
2023/03/25 01:26:12;;;;;;;11.57;5.77;;;7.60;1.00;;;;;;4935071;29;20193;-86
2023/03/25 01:28:39;;;;;;;12.13;6.20;;;7.60;1.00;;;;;;4935030;29;20198;-86
2023/03/25 01:31:09;;;;;;;9.57;4.90;;;7.60;1.00;;;;;;4935584;29;20614;-86
2023/03/25 01:33:37;;;;;;;11.60;5.33;;;7.60;1.00;;;;;;4939227;29;20193;-86
2023/03/25 01:36:08;;;;;;;10.27;5.90;;;7.50;1.00;;;;;;4937623;29;20284;-86
2023/03/25 01:38:35;;;;;;;8.37;5.90;;;7.50;1.00;;;;;;4938912;29;20210;-86
2023/03/25 01:41:04;;;;;;;10.23;5.87;;;7.50;1.00;;;;;;4938926;29;20200;-86
2023/03/25 01:43:31;;;;;;;10.83;5.63;;;7.50;1.00;;;;;;4937633;29;20197;-85
2023/03/25 01:45:58;;;;;;;10.73;6.03;;;7.50;1.00;;;;;;4924674;29;20197;-86
2023/03/25 01:48:31;;;;;;;10.70;5.47;;;7.50;1.00;;;;;;4939007;29;20204;-85
2023/03/25 01:51:03;;;;;;;8.83;5.17;;;7.50;1.00;;;;;;4938207;29;20636;-85
2023/03/25 01:53:32;;;;;;;10.70;5.40;;;7.50;1.00;;;;;;4930022;29;20266;-85
2023/03/25 01:56:04;;;;;;;8.37;4.93;;;7.50;1.00;;;;;;4931689;29;20202;-86
2023/03/25 01:58:33;;;;;;;8.30;4.97;;;7.50;1.00;;;;;;4928578;29;20213;-86
2023/03/25 02:01:01;;;;;;;10.73;5.07;;;7.50;1.00;;;;;;4938514;29;20261;-85
2023/03/25 02:03:29;;;;;;;9.33;4.50;;;7.50;1.00;;;;;;4932195;29;20209;-86
2023/03/25 02:06:02;;;;;;;7.90;4.67;;;7.50;1.00;;;;;;4927795;29;20617;-86
2023/03/25 02:08:32;;;;;;;7.93;4.83;;;7.40;1.00;;;;;;4938170;29;20241;-85
2023/03/25 02:10:59;;;;;;;10.50;4.40;;;7.40;1.00;;;;;;4933370;29;20308;-85
2023/03/25 02:13:26;;;;;;;7.40;4.13;;;7.40;1.00;;;;;;4934795;29;20199;-85
2023/03/25 02:16:20;;;;;;;7.67;4.10;;;7.40;1.00;;;;;;4938405;29;20252;-86
2023/03/25 02:19:00;;;;;;;6.00;3.90;;;7.50;1.00;;;;;;4938038;29;20197;-86
2023/03/25 02:22:00;;;;;;;8.00;3.93;;;7.50;1.00;;;;;;4935771;29;20250;-86
2023/03/25 02:25:00;;;;;;;7.30;4.00;;;7.60;1.00;;;;;;4935062;29;20202;-85
2023/03/25 02:27:40;;;;;;;7.47;4.20;;;7.70;1.00;;;;;;4934778;29;20316;-85
2023/03/25 02:30:30;;;;;;;8.13;4.57;;;7.90;1.00;;;;;;4936365;29;20279;-85
2023/03/25 02:33:30;;;;;;;8.53;4.17;;;7.90;99.90;;;;;;4925446;29;20203;-85
2023/03/25 02:36:22;;;;;;;8.43;3.70;;;7.90;99.90;;;;;;4923228;29;20194;-85
2023/03/25 02:38:52;;;;;;;6.57;4.13;;;7.90;99.90;;;;;;4860796;29;20206;-86
2023/03/25 02:41:24;;;;;;;7.07;4.10;;;7.90;99.90;;;;;;4860067;29;20268;-86
2023/03/25 02:43:56;;;;;;;6.23;4.10;;;7.80;99.90;;;;;;4859179;29;20207;-86
2023/03/25 02:46:25;;;;;;;6.80;4.20;;;7.70;99.90;;;;;;4860743;29;20227;-86
2023/03/25 02:48:58;;;;;;;7.00;3.77;;;7.70;99.90;;;;;;4846098;29;20199;-86
2023/03/25 02:51:29;;;;;;;5.73;4.00;;;7.60;99.90;;;;;;4858698;29;20201;-85
2023/03/25 02:54:02;;;;;;;7.87;3.70;;;7.50;99.90;;;;;;4858101;29;20246;-85
2023/03/25 02:56:31;;;;;;;7.20;4.37;;;7.40;99.90;;;;;;4859849;29;20200;-86
2023/03/25 02:59:00;;;;;;;5.53;3.70;;;7.40;99.90;;;;;;4853950;29;20208;-86
2023/03/25 03:01:27;;;;;;;5.30;4.03;;;7.30;99.90;;;;;;4860294;29;20429;-86
2023/03/25 03:03:54;;;;;;;7.90;4.07;;;7.20;99.90;;;;;;4860183;29;20208;-86
2023/03/25 03:06:22;;;;;;;7.97;3.80;;;7.20;99.90;;;;;;4860136;29;20371;-85
2023/03/25 03:09:04;;;;;;;6.73;4.00;;;7.20;99.90;;;;;;4859725;29;20206;-86
2023/03/25 03:11:40;;;;;;;7.03;3.90;;;7.10;99.90;;;;;;4860110;29;20227;-86
2023/03/25 03:14:24;;;;;;;6.10;3.70;;;7.10;99.90;;;;;;4860343;29;20204;-86
2023/03/25 03:16:59;;;;;;;8.63;3.73;;;7.10;1.00;;;;;;4921262;29;20197;-86
2023/03/25 03:19:37;;;;;;;9.07;3.80;;;7.10;1.00;;;;;;4937079;29;20200;-86
2023/03/25 03:22:14;;;;;;;8.00;3.90;;;7.10;99.90;;;;;;4923399;29;20203;-85
2023/03/25 03:24:47;;;;;;;6.43;3.93;;;7.00;99.90;;;;;;4937143;29;20204;-86
2023/03/25 03:27:22;;;;;;;6.80;3.93;;;7.00;99.90;;;;;;4937074;29;20217;-86
2023/03/25 03:29:53;;;;;;;9.90;4.30;;;7.00;99.90;;;;;;4926741;29;20685;-86
2023/03/25 03:32:27;;;;;;;8.23;4.03;;;7.00;99.90;;;;;;4929987;29;20205;-86
2023/03/25 03:34:56;;;;;;;9.37;3.67;;;6.90;99.90;;;;;;4930070;29;20197;-86
2023/03/25 03:37:28;;;;;;;5.37;3.70;;;6.90;99.90;;;;;;4936799;29;20628;-85
2023/03/25 03:39:57;;;;;;;8.67;4.10;;;6.80;99.90;;;;;;4931807;29;20193;-86
2023/03/25 03:42:30;;;;;;;9.67;4.60;;;6.80;1.00;;;;;;4933465;29;20197;-85
2023/03/25 03:45:00;;;;;;;11.97;4.67;;;6.80;1.00;;;;;;4936308;29;20733;-86
2023/03/25 03:47:31;;;;;;;8.90;4.40;;;6.80;99.90;;;;;;4936496;29;20220;-86
2023/03/25 03:50:01;;;;;;;6.97;4.67;;;6.80;1.00;;;;;;4936832;29;20213;-86
2023/03/25 03:52:33;;;;;;;7.50;4.60;;;6.80;1.00;;;;;;4936587;29;20197;-85
2023/03/25 03:55:05;;;;;;;8.83;4.00;;;6.80;1.00;;;;;;4935838;29;20289;-86
2023/03/25 03:57:37;;;;;;;6.53;4.03;;;6.80;1.00;;;;;;4936468;29;20263;-85
2023/03/25 04:00:08;;;;;;;10.83;4.63;;;6.80;1.00;;;;;;4924048;29;20231;-86
2023/03/25 04:02:39;;;;;;;10.23;4.53;;;6.90;1.00;;;;;;4926731;29;20214;-86
2023/03/25 04:05:10;;;;;;;7.60;4.37;;;6.90;1.00;;;;;;4936350;29;20193;-86
2023/03/25 04:07:41;;;;;;;6.90;4.00;;;6.80;1.00;;;;;;4934570;29;20217;-86
2023/03/25 04:10:14;;;;;;;10.87;4.33;;;6.80;1.00;;;;;;4923259;29;20269;-86
2023/03/25 04:12:45;;;;;;;7.37;4.37;;;6.80;1.00;;;;;;4920827;29;20202;-86
2023/03/25 04:15:13;;;;;;;9.17;4.60;;;6.80;1.00;;;;;;4936774;29;20209;-86
2023/03/25 04:17:41;;;;;;;9.83;5.10;;;6.80;1.00;;;;;;4935856;29;20197;-86
2023/03/25 04:20:13;;;;;;;9.93;5.20;;;6.80;1.00;;;;;;4936100;29;20201;-86
2023/03/25 04:22:44;;;;;;;10.03;5.30;;;6.80;1.00;;;;;;4936142;29;20193;-86
2023/03/25 04:25:13;;;;;;;9.17;5.47;;;6.80;1.00;;;;;;4936064;29;20230;-86
2023/03/25 04:27:47;;;;;;;10.93;6.00;;;6.80;1.00;;;;;;4935777;29;20256;-85
2023/03/25 04:30:16;;;;;;;7.83;5.43;;;6.80;1.00;;;;;;4936397;29;20198;-86
2023/03/25 04:32:45;;;;;;;10.27;6.00;;;6.80;1.00;;;;;;4925057;29;20241;-86
2023/03/25 04:35:12;;;;;;;9.97;5.87;;;6.70;1.00;;;;;;4930412;29;20213;-86
2023/03/25 04:37:40;;;;;;;11.80;5.80;;;6.70;1.00;;;;;;4935633;29;20280;-86
2023/03/25 04:40:09;;;;;;;7.63;5.17;;;6.70;1.00;;;;;;4935668;29;20669;-87
2023/03/25 04:42:37;;;;;;;7.73;5.13;;;6.70;1.00;;;;;;4935889;29;20264;-87
2023/03/25 04:45:04;;;;;;;8.23;5.33;;;6.70;1.00;;;;;;4935951;29;20252;-86
2023/03/25 04:47:32;;;;;;;7.87;4.80;;;6.60;1.00;;;;;;4935385;29;20675;-86
2023/03/25 04:49:59;;;;;;;7.83;5.07;;;6.70;1.00;;;;;;4935701;29;20252;-86
2023/03/25 04:52:26;;;;;;;10.90;5.80;;;6.70;1.00;;;;;;4935634;29;20203;-87
2023/03/25 04:54:53;;;;;;;8.07;4.70;;;6.70;1.00;;;;;;4935910;29;20676;-86
2023/03/25 04:57:20;;;;;;;9.87;5.87;;;6.70;1.00;;;;;;4935856;29;20190;-86
2023/03/25 04:59:48;;;;;;;6.43;3.90;;;6.70;1.00;;;;;;4935238;29;20197;-86
2023/03/25 05:02:17;;;;;;;8.77;4.73;;;6.70;1.00;;;;;;4935406;29;20208;-86
2023/03/25 05:04:46;;;;;;;10.17;4.73;;;6.70;1.00;;;;;;4935242;29;20733;-86
2023/03/25 05:07:15;;;;;;;9.13;4.27;;;6.80;1.00;;;;;;4934745;29;20282;-86
2023/03/25 05:09:42;;;;;;;7.43;4.30;;;6.80;24.80;;;;;;4935035;29;20588;-87
2023/03/25 05:12:10;;;;;;;7.90;4.37;;;6.90;22.70;;;;;;4935480;29;20212;-86
2023/03/25 05:14:37;;;;;;;6.80;4.20;;;7.00;24.40;;;;;;4926424;29;20713;-86
2023/03/25 05:17:05;;;;;;;7.77;4.47;;;7.00;36.30;;;;;;4928874;29;20193;-86
2023/03/25 05:19:33;;;;;;;8.50;4.27;;;7.10;96.60;;;;;;4934868;29;20193;-86
2023/03/25 05:22:03;;;;;;;8.83;4.40;;;7.10;98.60;;;;;;4921150;29;20193;-86
2023/03/25 05:24:30;;;;;;;7.30;3.80;;;7.20;55.40;;;;;;4935044;29;20189;-85
2023/03/25 05:27:01;;;;;;;7.53;4.03;;;7.20;15.10;;;;;;4926010;29;20252;-85
2023/03/25 05:29:32;;;;;;;9.33;4.03;;;7.30;1.00;;;;;;4935133;29;20201;-86
2023/03/25 05:31:59;;;;;;;10.30;4.90;;;7.30;1.00;;;;;;4935339;29;20242;-87
2023/03/25 05:34:29;;;;;;;6.70;4.03;;;7.40;1.00;;;;;;4934909;29;20204;-86
2023/03/25 05:36:56;;;;;;;5.70;3.83;;;7.50;1.00;;;;;;4934694;29;20254;-86
2023/03/25 05:39:24;;;;;;;6.43;4.60;;;7.60;1.00;;;;;;4935512;29;20664;-86
2023/03/25 05:41:54;;;;;;;7.23;4.43;;;7.70;1.00;;;;;;4935267;29;20204;-86
2023/03/25 05:44:21;;;;;;;8.67;5.60;;;7.80;1.00;;;;;;4933567;29;20202;-86
2023/03/25 05:46:48;;;;;;;10.37;6.30;;;7.80;1.00;;;;;;4934763;29;20260;-86
2023/03/25 05:49:15;;;;;;;15.17;6.30;;;7.90;1.00;;;;;;4934761;29;20291;-86
2023/03/25 05:51:43;;;;;;;12.50;6.33;;;8.00;1.00;;;;;;4919816;29;20202;-86
2023/03/25 05:54:10;;;;;;;14.33;6.80;;;8.10;1.00;;;;;;4935266;29;20198;-86
2023/03/25 05:56:37;;;;;;;11.80;5.17;;;8.30;1.00;;;;;;4934154;29;20623;-87
2023/03/25 05:59:04;;;;;;;9.70;4.40;;;8.50;1.00;;;;;;4933213;29;20742;-87
2023/03/25 06:01:32;;;;;;;10.23;4.60;;;8.70;99.90;;;;;;4935061;29;20255;-86
2023/03/25 06:04:01;;;;;;;7.93;4.27;;;8.90;99.90;;;;;;4935075;29;20211;-87
2023/03/25 06:06:28;;;;;;;7.37;4.10;;;9.00;99.90;;;;;;4932343;29;20231;-86
2023/03/25 06:08:56;;;;;;;5.80;4.13;;;9.10;99.90;;;;;;4934712;29;20266;-86
2023/03/25 06:11:23;;;;;;;7.20;4.50;;;9.20;73.60;;;;;;4931980;29;20295;-87
2023/03/25 06:13:50;;;;;;;6.63;4.37;;;9.40;48.80;;;;;;4931659;29;20244;-87
2023/03/25 06:16:19;;;;;;;6.80;4.17;;;9.60;12.00;;;;;;4922732;29;20208;-86
2023/03/25 06:18:49;;;;;;;5.60;4.20;;;9.70;1.00;;;;;;4926773;29;20212;-87
2023/03/25 06:21:18;;;;;;;6.67;3.73;;;9.90;1.00;;;;;;4938725;29;20197;-87
2023/03/25 06:23:45;;;;;;;7.33;3.90;;;10.10;1.00;;;;;;4938049;29;20201;-86
2023/03/25 06:26:13;;;;;;;8.57;4.30;;;10.10;99.90;;;;;;4932695;29;20650;-87
2023/03/25 06:28:40;;;;;;;8.50;5.87;;;10.20;99.90;;;;;;4928633;29;20213;-86
2023/03/25 06:31:12;;;;;;;12.87;7.50;;;10.30;99.90;;;;;;4938502;29;20217;-87
2023/03/25 06:33:40;;;;;;;12.77;7.37;;;10.50;92.10;;;;;;4926526;29;20261;-86
2023/03/25 06:36:10;;;;;;;22.47;11.53;;;10.60;1.00;;;;;;4936488;29;20285;-87
2023/03/25 06:38:37;;;;;;;14.03;7.13;;;10.60;1.00;;;;;;4937887;29;20233;-86
2023/03/25 06:41:06;;;;;;;11.37;6.63;;;10.50;1.00;;;;;;4937820;29;20198;-87
2023/03/25 06:43:34;;;;;;;10.07;5.10;;;10.40;1.00;;;;;;4937787;29;20717;-86
2023/03/25 06:46:01;;;;;;;8.30;4.63;;;10.30;99.90;;;;;;4937675;29;20201;-87
2023/03/25 06:48:28;;;;;;;5.83;3.30;;;10.20;1.00;;;;;;4922671;29;20226;-86
2023/03/25 06:50:55;;;;;;;9.33;5.07;;;10.10;1.00;;;;;;4937984;29;20917;-87
2023/03/25 06:53:22;;;;;;;6.47;3.67;;;9.90;1.00;;;;;;4930886;29;20201;-87
2023/03/25 06:55:49;;;;;;;6.07;3.47;;;9.90;1.00;;;;;;4929633;29;20276;-87
2023/03/25 06:58:16;;;;;;;5.93;3.47;;;9.90;1.00;;;;;;4937609;29;20283;-87
2023/03/25 07:00:45;;;;;;;5.83;3.70;;;10.00;1.00;;;;;;4937538;29;20208;-87
2023/03/25 07:03:12;;;;;;;7.47;3.73;;;10.00;1.00;;;;;;4937591;29;20228;-86
2023/03/25 07:05:41;;;;;;;5.73;3.70;;;10.10;1.00;;;;;;4937405;29;20201;-87
2023/03/25 07:08:08;;;;;;;5.87;3.33;;;10.10;1.00;;;;;;4937106;29;20638;-87
2023/03/25 07:10:35;;;;;;;5.10;3.73;;;10.00;1.00;;;;;;4937352;29;20232;-86
2023/03/25 07:13:02;;;;;;;6.60;3.50;;;10.10;1.00;;;;;;4922876;29;20202;-87
2023/03/25 07:15:29;;;;;;;4.63;3.27;;;10.10;1.00;;;;;;4937354;29;20199;-86
2023/03/25 07:17:57;;;;;;;8.73;4.30;;;10.10;1.00;;;;;;4937083;29;20243;-87
2023/03/25 07:20:24;;;;;;;9.40;4.97;;;10.20;1.00;;;;;;4936894;29;20265;-88
2023/03/25 07:22:53;;;;;;;5.57;3.73;;;10.40;1.00;;;;;;4936961;29;20204;-87
2023/03/25 07:25:20;;;;;;;10.27;5.53;;;10.40;1.00;;;;;;4937097;29;20257;-87
2023/03/25 07:27:47;;;;;;;7.63;5.00;;;10.50;1.00;;;;;;4936919;29;20214;-87
2023/03/25 07:30:14;;;;;;;11.23;7.00;;;10.50;1.00;;;;;;4923370;29;20201;-87
2023/03/25 07:32:41;;;;;;;10.97;6.40;;;10.60;1.00;;;;;;4935348;29;20558;-87
2023/03/25 07:35:09;;;;;;;8.87;6.00;;;10.80;1.00;;;;;;4936956;29;20198;-87
2023/03/25 07:37:36;;;;;;;6.53;3.90;;;10.90;1.00;;;;;;4937374;29;20286;-87
2023/03/25 07:40:04;;;;;;;7.03;5.40;;;11.10;1.00;;;;;;4937172;29;20195;-87
2023/03/25 07:42:31;;;;;;;6.67;2.90;;;11.30;99.90;;;;;;4921930;29;20204;-87
2023/03/25 07:44:58;;;;;;;5.80;3.10;;;11.40;99.90;;;;;;4933423;29;20197;-87
2023/03/25 07:47:25;;;;;;;4.63;3.30;;;11.50;99.90;;;;;;4933336;29;20206;-87
2023/03/25 07:49:52;;;;;;;6.43;3.80;;;11.60;99.90;;;;;;4936934;29;20704;-87
2023/03/25 07:52:20;;;;;;;7.13;4.43;;;11.70;35.30;;;;;;4936810;29;20262;-87
2023/03/25 07:54:47;;;;;;;7.77;5.03;;;11.90;1.00;;;;;;4937045;29;20199;-87
2023/03/25 07:57:14;;;;;;;4.57;3.07;;;12.00;1.00;;;;;;4937177;29;20193;-87
2023/03/25 07:59:41;;;;;;;4.63;3.80;;;12.10;1.00;;;;;;4936445;29;20201;-87
2023/03/25 08:02:10;;;;;;;5.33;3.13;;;12.10;1.00;;;;;;4936601;29;20263;-87
2023/03/25 08:04:37;;;;;;;6.97;4.53;;;12.10;1.00;;;;;;4935841;29;20195;-87
2023/03/25 08:07:04;;;;;;;6.30;3.90;;;12.20;1.00;;;;;;4922367;29;20268;-87
2023/03/25 08:09:32;;;;;;;7.07;3.70;;;12.30;1.00;;;;;;4936499;29;20240;-87
2023/03/25 08:11:59;;;;;;;5.27;3.50;;;12.50;1.00;;;;;;4936885;29;20197;-88
2023/03/25 08:14:27;;;;;;;3.93;3.03;;;12.70;99.90;;;;;;4936332;29;20224;-88
2023/03/25 08:16:54;;;;;;;7.33;2.77;;;12.90;99.90;;;;;;4936736;29;20201;-88
2023/03/25 08:19:21;;;;;;;6.60;3.03;;;13.20;99.90;;;;;;4936978;29;20222;-88
2023/03/25 08:21:48;;;;;;;5.23;2.80;;;13.50;1.00;;;;;;4936291;29;20196;-88
2023/03/25 08:24:15;;;;;;;5.87;2.57;;;13.70;1.00;;;;;;4936876;29;20735;-88
2023/03/25 08:26:43;;;;;;;4.77;2.77;;;13.90;99.90;;;;;;4936623;29;20208;-88
2023/03/25 08:29:11;;;;;;;4.10;2.37;;;13.90;99.90;;;;;;4936407;29;20224;-87
2023/03/25 08:31:39;;;;;;;3.33;2.43;;;14.10;99.90;;;;;;4936694;29;20204;-88
2023/03/25 08:34:06;;;;;;;3.87;2.50;;;14.30;2.10;;;;;;4936235;29;20212;-87
2023/03/25 08:36:38;;;;;;;4.30;2.37;;;14.40;1.00;;;;;;4936076;29;20198;-88
2023/03/25 08:39:08;;;;;;;3.90;1.97;;;14.50;1.00;;;;;;4917813;29;20239;-87
2023/03/25 08:41:36;;;;;;;4.07;2.67;;;14.40;99.90;;;;;;4933644;29;20200;-87
2023/03/25 08:44:05;;;;;;;3.27;2.07;;;14.30;99.90;;;;;;4936894;29;20206;-88
2023/03/25 08:46:32;;;;;;;4.87;2.37;;;14.10;1.00;;;;;;4936233;29;20262;-88
2023/03/25 08:48:59;;;;;;;3.77;2.27;;;14.10;1.00;;;;;;4936728;29;20267;-89
2023/03/25 08:51:26;;;;;;;4.80;2.30;;;14.10;1.00;;;;;;4936832;29;20200;-89
2023/03/25 08:53:53;;;;;;;4.90;1.63;;;14.10;99.90;;;;;;4931344;29;20246;-89
2023/03/25 08:56:20;;;;;;;2.83;1.90;;;14.00;99.90;;;;;;4928079;29;20771;-87
2023/03/25 08:58:47;;;;;;;3.67;1.80;;;14.00;99.90;;;;;;4927173;29;20726;-87
2023/03/25 09:01:16;;;;;;;3.23;1.80;;;13.90;1.00;;;;;;4930135;29;20611;-87
2023/03/25 09:03:44;;;;;;;3.20;1.80;;;13.80;99.90;;;;;;4921271;29;20576;-88
2023/03/25 09:06:11;;;;;;;3.17;2.10;;;13.90;99.90;;;;;;4933462;29;20337;-88
2023/03/25 09:08:38;;;;;;;3.73;2.07;;;14.00;1.00;;;;;;4930130;29;20213;-89
2023/03/25 09:11:05;;;;;;;4.57;1.80;;;14.10;1.00;;;;;;4923658;29;20229;-87
2023/03/25 09:13:32;;;;;;;3.67;2.00;;;14.30;1.00;;;;;;4928543;29;20248;-88
2023/03/25 09:15:59;;;;;;;2.87;1.50;;;14.40;1.00;;;;;;4935577;29;20255;-87
2023/03/25 09:18:27;;;;;;;2.70;1.70;;;14.50;1.00;;;;;;4935566;29;20617;-88
2023/03/25 09:20:59;;;;;;;4.20;1.73;;;14.50;99.90;;;;;;4936132;29;20259;-89
2023/03/25 09:23:27;;;;;;;2.70;1.70;;;14.30;99.90;;;;;;4929064;29;20207;-88
2023/03/25 09:25:54;;;;;;;4.90;2.07;;;14.20;99.90;;;;;;4925086;29;20192;-88
2023/03/25 09:28:21;;;;;;;3.77;1.50;;;14.00;99.90;;;;;;4930888;29;20208;-89
2023/03/25 09:30:48;;;;;;;3.73;1.87;;;13.90;1.00;;;;;;4920553;29;20511;-89
2023/03/25 09:33:15;;;;;;;2.50;1.40;;;13.90;1.00;;;;;;4929704;29;20256;-89
2023/03/25 09:35:43;;;;;;;3.03;1.53;;;13.90;1.00;;;;;;4924753;29;20248;-88
2023/03/25 09:38:10;;;;;;;3.80;1.70;;;14.00;1.00;;;;;;4925696;29;20208;-88
2023/03/25 09:40:41;;;;;;;4.33;1.60;;;14.20;1.00;;;;;;4925452;29;20206;-89
2023/03/25 09:43:27;;;;;;;4.90;1.70;;;14.30;1.00;;;;;;4933559;29;20248;-89
2023/03/25 09:45:56;;;;;;;5.40;2.40;;;14.40;99.90;;;;;;4936629;29;20281;-89
2023/03/25 09:48:32;;;;;;;4.27;2.13;;;14.30;99.90;;;;;;4936247;29;20199;-89
2023/03/25 09:51:04;;;;;;;2.67;2.00;;;14.20;99.90;;;;;;4935627;29;20189;-89
2023/03/25 09:53:35;;;;;;;4.77;2.10;;;14.10;99.90;;;;;;4938822;29;20200;-87
2023/03/25 09:56:04;;;;;;;5.80;2.77;;;14.10;99.90;;;;;;4939948;29;20204;-87
2023/03/25 09:58:40;;;;;;;7.03;3.20;;;14.00;18.70;;;;;;4939609;29;20272;-89
2023/03/25 10:01:28;;;;;;;3.53;1.83;;;14.10;1.00;;;;;;4925991;29;20286;-89
2023/03/25 10:04:08;;;;;;;6.17;2.00;;;14.40;1.00;;;;;;4940047;29;20670;-90
2023/03/25 10:06:43;;;;;;;4.40;1.38;;;14.80;1.00;;;;;;4940109;29;20257;-90
2023/03/25 10:09:33;;;;;;;3.17;1.33;;;14.90;1.00;;;;;;4939871;29;20769;-91
2023/03/25 10:12:08;;;;;;;5.00;1.57;;;15.00;1.00;;;;;;4936386;29;20192;-90
2023/03/25 10:14:42;;;;;;;4.13;1.73;;;15.00;1.00;;;;;;4937955;29;20741;-90
2023/03/25 10:17:17;;;;;;;2.93;1.60;;;14.70;1.00;;;;;;4940530;29;20199;-90
2023/03/25 10:19:53;;;;;;;2.50;1.30;;;14.50;1.00;;;;;;4939532;29;20225;-89
2023/03/25 10:22:28;;;;;;;25.97;10.70;;;14.10;1.00;;;;;;4940307;29;20255;-89
2023/03/25 10:24:59;;;;;;;2.33;1.50;;;13.90;1.00;;;;;;4939397;29;20258;-90
2023/03/25 10:27:32;;;;;;;3.07;1.43;;;13.70;1.00;;;;;;4921109;29;20192;-90
2023/03/25 10:30:07;;;;;;;5.57;2.20;;;13.80;1.00;;;;;;4920665;29;20764;-91
2023/03/25 10:32:40;;;;;;;2.93;1.30;;;14.00;1.00;;;;;;4920570;29;20284;-89
2023/03/25 10:35:22;;;;;;;1.50;1.00;;;14.10;1.00;;;;;;4914245;29;20204;-90
2023/03/25 10:37:54;;;;;;;1.97;1.00;;;14.20;1.00;;;;;;4920081;29;20669;-91
2023/03/25 10:40:25;;;;;;;2.60;1.30;;;14.00;1.00;;;;;;4920759;29;20233;-89
2023/03/25 10:43:15;;;;;;;3.80;1.00;;;14.00;1.00;;;;;;4904939;29;20269;-88
2023/03/25 10:45:43;;;;;;;2.10;1.30;;;14.00;1.00;;;;;;4920303;29;20283;-90
2023/03/25 10:48:16;;;;;;;4.80;1.70;;;14.10;1.00;;;;;;4920510;29;20204;-91
2023/03/25 10:50:43;;;;;;;3.57;1.53;;;14.50;1.00;;;;;;4920631;29;20282;-90
2023/03/25 10:53:20;;;;;;;3.50;1.80;;;15.00;1.00;;;;;;4921599;29;20199;-90
2023/03/25 10:55:51;;;;;;;7.05;4.13;;;15.50;1.00;;;;;;4910856;29;20196;-91
2023/03/25 10:58:20;;;;;;;3.50;1.70;;;16.10;1.00;;;;;;4920122;29;20225;-89
2023/03/25 11:00:47;;;;;;;2.17;1.20;;;16.40;1.00;;;;;;4901843;29;20201;-90
2023/03/25 11:03:20;;;;;;;2.63;1.10;;;16.40;1.00;;;;;;4910652;29;20204;-91
2023/03/25 11:05:48;;;;;;;2.22;1.20;;;16.40;1.00;;;;;;4919640;29;20211;-91
2023/03/25 11:08:20;;;;;;;2.40;0.88;;;16.30;1.00;;;;;;4920301;29;20197;-90
2023/03/25 11:10:50;;;;;;;3.17;1.10;;;16.10;1.00;;;;;;4919810;29;20949;-92
2023/03/25 11:13:20;;;;;;;1.48;1.15;;;15.80;1.00;;;;;;4919694;29;20744;-90
2023/03/25 11:15:48;;;;;;;1.38;1.15;;;15.50;1.00;;;;;;4900911;29;20289;-89
2023/03/25 11:18:20;;;;;;;3.35;2.30;;;15.20;1.00;;;;;;4900870;29;20209;-87
2023/03/25 11:20:50;;;;;;;5.65;1.75;;;14.90;1.00;;;;;;4917357;29;20204;-88
2023/03/25 11:23:24;;;;;;;1.85;1.20;;;14.70;1.00;;;;;;4918534;29;20209;-88
2023/03/25 11:25:52;;;;;;;3.63;1.60;;;14.60;1.00;;;;;;4919196;29;20207;-88
2023/03/25 11:28:26;;;;;;;3.50;1.27;;;14.70;1.00;;;;;;4918385;29;20199;-88
2023/03/25 11:31:16;;;;;;;4.50;2.33;;;14.80;1.00;;;;;;4918594;29;20688;-88
2023/03/25 11:33:45;;;;;;;9.47;7.33;;;15.00;1.00;;;;;;4901013;29;20211;-88
2023/03/25 11:36:21;;;;;;;2.23;1.50;;;15.00;1.00;;;;;;4919041;29;20206;-88
2023/03/25 11:38:56;;;;;;;1.98;1.30;;;15.00;1.00;;;;;;4919218;29;20199;-89
2023/03/25 11:41:24;;;;;;;4.60;1.60;;;14.90;1.00;;;;;;4919398;29;20195;-89
2023/03/25 11:43:51;;;;;;;5.90;2.77;;;14.70;1.00;;;;;;4919597;29;20251;-89
2023/03/25 11:46:21;;;;;;;7.32;3.80;;;14.60;1.00;;;;;;4917736;29;20209;-89
2023/03/25 11:48:49;;;;;;;9.10;5.00;;;14.30;1.00;;;;;;4919138;29;20200;-88
2023/03/25 11:51:20;;;;;;;4.30;2.77;;;13.90;1.00;;;;;;4918301;29;20352;-89
2023/03/25 11:53:50;;;;;;;2.63;1.50;;;13.60;1.00;;;;;;4918977;29;20241;-93
2023/03/25 11:56:23;;;;;;;2.67;1.63;;;13.50;1.00;;;;;;4919128;29;20207;-93
2023/03/25 11:58:50;;;;;;;3.03;2.40;;;13.30;1.00;;;;;;4918668;29;20291;-93
2023/03/25 12:01:24;;;;;;;3.97;2.37;;;13.00;1.00;;;;;;4916207;29;20260;-92
2023/03/25 12:03:52;;;;;;;3.23;2.20;;;12.60;1.00;;;;;;4919057;29;20195;-92
2023/03/25 12:06:21;;;;;;;3.80;1.93;;;12.40;99.90;;;;;;4918445;29;20242;-91
2023/03/25 12:08:50;;;;;;;3.83;2.20;;;12.20;99.90;;;;;;4918299;29;20199;-88
2023/03/25 12:11:24;;;;;;;4.57;2.30;;;12.20;1.00;;;;;;4919457;29;20275;-90
2023/03/25 12:14:24;;;;;;;3.50;2.20;;;12.10;1.00;;;;;;4919224;29;20186;-90
2023/03/25 12:17:01;;;;;;;5.27;1.90;;;12.30;1.00;;;;;;4899935;29;20197;-89
2023/03/25 12:19:37;;;;;;;3.33;1.87;;;12.60;1.00;;;;;;4900252;29;20188;-90
2023/03/25 12:22:15;;;;;;;2.13;1.47;;;13.00;1.00;;;;;;4904337;29;20215;-90
2023/03/25 12:25:05;;;;;;;4.63;2.70;;;13.60;1.00;;;;;;4919027;29;20250;-91
2023/03/25 12:27:46;;;;;;;5.27;2.80;;;14.20;1.00;;;;;;4918926;29;20267;-91
2023/03/25 12:30:26;;;;;;;2.80;1.80;;;14.60;1.00;;;;;;4916682;29;20756;-90
2023/03/25 12:33:00;;;;;;;4.73;2.23;;;14.50;99.90;;;;;;4918844;29;20250;-90
2023/03/25 12:35:36;;;;;;;3.43;2.13;;;14.30;99.90;;;;;;4918440;29;20256;-91
2023/03/25 12:38:22;;;;;;;2.23;1.10;;;14.10;99.90;;;;;;4918575;29;20192;-91
2023/03/25 12:41:11;;;;;;;5.60;2.60;;;13.60;99.90;;;;;;4918634;29;20623;-89
2023/03/25 12:43:52;;;;;;;3.37;2.20;;;13.20;99.90;;;;;;4918890;29;20717;-91
2023/03/25 12:46:30;;;;;;;4.33;2.67;;;13.00;1.00;;;;;;4918798;29;20236;-91
2023/03/25 12:49:15;;;;;;;2.77;1.20;;;12.90;1.00;;;;;;4918510;29;20566;-90
2023/03/25 12:51:51;;;;;;;6.00;3.00;;;12.70;1.00;;;;;;4918567;29;20243;-92
2023/03/25 12:54:34;;;;;;;5.93;3.53;;;12.70;1.00;;;;;;4918021;29;20202;-90
2023/03/25 12:57:13;;;;;;;2.60;1.70;;;12.80;1.00;;;;;;4899613;29;20189;-90
2023/03/25 13:00:13;;;;;;;8.43;4.63;;;12.80;1.00;;;;;;4899393;29;20200;-89
2023/03/25 13:03:04;;;;;;;2.97;1.87;;;12.80;1.00;;;;;;4915352;29;20214;-89
2023/03/25 13:05:36;;;;;;;4.40;2.73;;;12.80;1.00;;;;;;4916669;29;20207;-88
2023/03/25 13:08:08;;;;;;;9.93;5.83;;;12.70;1.00;;;;;;4916900;29;20196;-89
2023/03/25 13:10:37;;;;;;;3.73;2.30;;;12.70;1.00;;;;;;4917243;29;20285;-89
2023/03/25 13:13:10;;;;;;;2.17;1.90;;;12.80;1.00;;;;;;4917170;29;20204;-88
2023/03/25 13:15:42;;;;;;;5.87;3.33;;;12.90;1.00;;;;;;4918928;29;20271;-88